Terminal Aerodrome Forecast
Issued by NWS

Home | Current Version | Previous Version | Text Only | Print | Product List | Glossary On
Versions: 1 2 3 4 5 6 7 8 9 10 11 12 13 14 15 16 17 18
000
FTUS43 KLSX 272359 AAA
TAFCPS
TAF AMD
KCPS 272359Z 2800/2824 06010G20KT P6SM VCTS BKN040CB OVC080
      TEMPO 2800/2801 VRB15G30KT 4SM -TSRA BKN030CB
     FM280200 VRB03KT P6SM SCT100 BKN250
     FM281500 09008KT P6SM FEW040 SCT250=

USA.gov is the U.S. government's official web portal to all federal, state and local government web resources and services.